TimeCST,TemperatureF,Dew PointF,Humidity,Sea Level PressureIn,VisibilityMPH,Wind Direction,Wind SpeedMPH,Gust SpeedMPH,PrecipitationIn,Events,Conditions,WindDirDegrees,DateUTC
12:15 AM,37.8,37.8,100,30.32,10.0,Calm,Calm,-,N/A,,Unknown,0,2012-11-17 06:15:00
12:35 AM,37.8,37.8,100,30.32,10.0,Calm,Calm,-,N/A,,Unknown,0,2012-11-17 06:35:00
12:55 AM,38.3,38.3,100,30.32,10.0,Calm,Calm,-,N/A,,Unknown,0,2012-11-17 06:55:00
1:15 AM,38.3,38.3,100,30.32,10.0,Calm,Calm,-,N/A,,Unknown,0,2012-11-17 07:15:00
1:35 AM,37.4,37.4,100,30.31,10.0,Calm,Calm,-,N/A,,Unknown,0,2012-11-17 07:35:00
1:55 AM,36.7,36.7,100,30.31,10.0,Calm,Calm,-,N/A,,Unknown,0,2012-11-17 07:55:00
2:15 AM,37.2,37.2,100,30.31,10.0,Calm,Calm,-,N/A,,Unknown,0,2012-11-17 08:15:00
2:35 AM,37.0,37.0,100,30.31,10.0,Calm,Calm,-,N/A,,Unknown,0,2012-11-17 08:35:00
2:55 AM,36.5,36.5,100,30.31,10.0,Calm,Calm,-,N/A,,Unknown,0,2012-11-17 08:55:00
3:15 AM,37.6,37.6,100,30.31,10.0,Calm,Calm,-,N/A,,Unknown,0,2012-11-17 09:15:00
3:35 AM,37.4,37.4,100,30.31,10.0,Calm,Calm,-,N/A,,Unknown,0,2012-11-17 09:35:00
3:55 AM,37.4,37.4,100,30.31,10.0,Calm,Calm,-,N/A,,Unknown,0,2012-11-17 09:55:00
4:15 AM,37.4,37.4,100,30.31,10.0,Calm,Calm,-,N/A,,Unknown,0,2012-11-17 10:15:00
4:35 AM,37.6,37.6,100,30.31,10.0,Calm,Calm,-,N/A,,Unknown,0,2012-11-17 10:35:00
4:55 AM,35.8,35.8,100,30.31,10.0,Calm,Calm,-,N/A,,Unknown,0,2012-11-17 10:55:00
5:15 AM,36.0,36.0,100,30.32,10.0,Calm,Calm,-,N/A,,Unknown,0,2012-11-17 11:15:00
5:55 AM,35.6,35.6,100,30.33,10.0,Calm,Calm,-,N/A,,Unknown,0,2012-11-17 11:55:00
6:15 AM,35.4,35.4,100,30.33,10.0,Calm,Calm,-,N/A,,Unknown,0,2012-11-17 12:15:00
6:35 AM,36.0,36.0,100,30.34,10.0,Calm,Calm,-,N/A,,Unknown,0,2012-11-17 12:35:00
6:55 AM,35.8,35.8,100,30.35,10.0,Calm,Calm,-,N/A,,Unknown,0,2012-11-17 12:55:00
7:15 AM,36.9,36.9,100,30.35,10.0,Calm,Calm,-,N/A,,Unknown,0,2012-11-17 13:15:00
7:35 AM,39.6,38.3,95,30.36,10.0,Calm,Calm,-,N/A,,Unknown,0,2012-11-17 13:35:00
7:55 AM,42.8,36.5,78,30.36,10.0,NNE,3.5,-,N/A,,Unknown,20,2012-11-17 13:55:00
8:15 AM,45.0,37.2,74,30.38,10.0,NNE,3.5,-,N/A,,Unknown,30,2012-11-17 14:15:00
8:35 AM,47.1,36.9,68,30.38,10.0,NE,4.6,-,N/A,,Unknown,40,2012-11-17 14:35:00
9:15 AM,50.4,38.5,64,30.39,10.0,NNE,3.5,-,N/A,,Unknown,20,2012-11-17 15:15:00
9:35 AM,52.5,39.0,60,30.39,10.0,ENE,3.5,-,N/A,,Unknown,70,2012-11-17 15:35:00
9:55 AM,54.9,40.1,58,30.39,10.0,ENE,3.5,-,N/A,,Unknown,70,2012-11-17 15:55:00
10:15 AM,56.3,39.9,54,30.39,10.0,NE,3.5,-,N/A,,Unknown,50,2012-11-17 16:15:00
10:35 AM,58.8,40.8,51,30.38,10.0,East,3.5,-,N/A,,Unknown,90,2012-11-17 16:35:00
11:55 AM,63.9,40.5,42,30.34,10.0,East,4.6,-,N/A,,Unknown,80,2012-11-17 17:55:00
12:15 PM,64.4,39.7,40,30.33,10.0,NNE,6.9,-,N/A,,Unknown,30,2012-11-17 18:15:00
12:35 PM,64.8,38.5,38,30.32,10.0,ENE,9.2,-,N/A,,Unknown,70,2012-11-17 18:35:00
12:55 PM,65.7,39.4,38,30.31,10.0,East,4.6,-,N/A,,Unknown,80,2012-11-17 18:55:00
1:15 PM,65.5,38.7,37,30.31,10.0,NNE,5.8,-,N/A,,Unknown,30,2012-11-17 19:15:00
1:55 PM,66.2,37.6,35,30.30,10.0,NE,8.1,-,N/A,,Unknown,40,2012-11-17 19:55:00
2:15 PM,65.8,38.5,37,30.30,10.0,NNE,3.5,-,N/A,,Unknown,30,2012-11-17 20:15:00
2:35 PM,66.4,38.7,36,30.29,10.0,NNE,8.1,-,N/A,,Unknown,30,2012-11-17 20:35:00
2:55 PM,66.4,37.0,34,30.29,10.0,NNE,8.1,-,N/A,,Unknown,20,2012-11-17 20:55:00
3:15 PM,66.2,35.8,32,30.29,10.0,NNE,6.9,-,N/A,,Unknown,30,2012-11-17 21:15:00
3:35 PM,65.5,37.2,35,30.29,10.0,NNE,9.2,-,N/A,,Unknown,20,2012-11-17 21:35:00
3:55 PM,65.1,37.0,35,30.29,10.0,NNE,5.8,-,N/A,,Unknown,30,2012-11-17 21:55:00
4:15 PM,64.2,37.9,38,30.29,10.0,NNE,6.9,-,N/A,,Unknown,30,2012-11-17 22:15:00
4:35 PM,62.6,39.4,42,30.29,10.0,NNE,5.8,-,N/A,,Unknown,20,2012-11-17 22:35:00
4:55 PM,59.4,41.2,51,30.29,10.0,NNE,4.6,-,N/A,,Unknown,30,2012-11-17 22:55:00
5:15 PM,56.8,43.0,60,30.29,10.0,NNE,4.6,-,N/A,,Unknown,30,2012-11-17 23:15:00
5:35 PM,53.2,45.0,73,30.29,10.0,NNE,3.5,-,N/A,,Unknown,20,2012-11-17 23:35:00
5:55 PM,50.2,45.1,83,30.29,10.0,North,3.5,-,N/A,,Unknown,350,2012-11-17 23:55:00
6:15 PM,48.7,44.1,84,30.30,10.0,Calm,Calm,-,N/A,,Unknown,0,2012-11-18 00:15:00
6:35 PM,48.6,48.6,100,30.31,10.0,Calm,Calm,-,N/A,,Unknown,0,2012-11-18 00:35:00
6:55 PM,47.8,47.8,100,30.31,10.0,Calm,Calm,-,N/A,,Unknown,0,2012-11-18 00:55:00
7:15 PM,46.0,46.0,100,30.31,10.0,Calm,Calm,-,N/A,,Unknown,0,2012-11-18 01:15:00
7:35 PM,45.5,45.5,100,30.31,10.0,Calm,Calm,-,N/A,,Unknown,0,2012-11-18 01:35:00
7:55 PM,44.2,44.2,100,30.31,10.0,Calm,Calm,-,N/A,,Unknown,0,2012-11-18 01:55:00
8:15 PM,42.4,42.4,100,30.32,10.0,Calm,Calm,-,N/A,,Unknown,0,2012-11-18 02:15:00
8:35 PM,42.1,42.1,100,30.33,10.0,Calm,Calm,-,N/A,,Unknown,0,2012-11-18 02:35:00
8:55 PM,42.1,42.1,100,30.34,10.0,Calm,Calm,-,N/A,,Unknown,0,2012-11-18 02:55:00
9:15 PM,41.4,41.4,100,30.34,7.0,Calm,Calm,-,N/A,,Unknown,0,2012-11-18 03:15:00
9:35 PM,40.8,40.8,100,30.35,10.0,Calm,Calm,-,N/A,,Unknown,0,2012-11-18 03:35:00
9:55 PM,39.0,39.0,100,30.35,10.0,Calm,Calm,-,N/A,,Unknown,0,2012-11-18 03:55:00
10:15 PM,40.8,40.8,100,30.35,10.0,Calm,Calm,-,N/A,,Unknown,0,2012-11-18 04:15:00
10:35 PM,39.9,39.9,100,30.35,7.0,Calm,Calm,-,N/A,,Unknown,0,2012-11-18 04:35:00
10:55 PM,39.0,39.0,100,30.35,10.0,Calm,Calm,-,N/A,,Unknown,0,2012-11-18 04:55:00
11:15 PM,39.4,39.4,100,30.35,7.0,Calm,Calm,-,N/A,,Unknown,0,2012-11-18 05:15:00
11:35 PM,37.6,37.6,100,30.34,10.0,Calm,Calm,-,N/A,,Unknown,0,2012-11-18 05:35:00
11:55 PM,38.8,38.8,100,30.34,10.0,Calm,Calm,-,N/A,,Unknown,0,2012-11-18 05:55:00